sensor_id;sensor_type;location;lat;lon;timestamp;temperature;humidity
70051;SHT30;57391;51.306;22.680;2022-12-10T00:01:43;2.08;84.61
70051;SHT30;57391;51.306;22.680;2022-12-10T00:04:11;2.06;84.61
70051;SHT30;57391;51.306;22.680;2022-12-10T00:06:39;2.05;84.71
70051;SHT30;57391;51.306;22.680;2022-12-10T00:09:09;2.04;84.73
70051;SHT30;57391;51.306;22.680;2022-12-10T00:11:40;2.03;84.77
70051;SHT30;57391;51.306;22.680;2022-12-10T00:14:08;2.03;84.88
70051;SHT30;57391;51.306;22.680;2022-12-10T00:16:37;2.03;84.93
70051;SHT30;57391;51.306;22.680;2022-12-10T00:19:04;2.03;84.90
70051;SHT30;57391;51.306;22.680;2022-12-10T00:21:35;2.03;84.83
70051;SHT30;57391;51.306;22.680;2022-12-10T00:24:04;2.02;84.89
70051;SHT30;57391;51.306;22.680;2022-12-10T00:26:34;2.01;84.96
70051;SHT30;57391;51.306;22.680;2022-12-10T00:29:06;2.01;84.92
70051;SHT30;57391;51.306;22.680;2022-12-10T00:31:36;2.01;84.91
70051;SHT30;57391;51.306;22.680;2022-12-10T00:34:06;2.00;84.94
70051;SHT30;57391;51.306;22.680;2022-12-10T00:36:40;1.99;84.92
70051;SHT30;57391;51.306;22.680;2022-12-10T00:39:13;1.98;84.94
70051;SHT30;57391;51.306;22.680;2022-12-10T00:41:43;1.96;84.97
70051;SHT30;57391;51.306;22.680;2022-12-10T00:44:11;1.95;85.11
70051;SHT30;57391;51.306;22.680;2022-12-10T00:46:38;1.95;85.10
70051;SHT30;57391;51.306;22.680;2022-12-10T00:49:09;1.96;85.10
70051;SHT30;57391;51.306;22.680;2022-12-10T00:51:37;1.95;85.13
70051;SHT30;57391;51.306;22.680;2022-12-10T00:54:05;1.95;85.19
70051;SHT30;57391;51.306;22.680;2022-12-10T00:56:32;1.96;85.20
70051;SHT30;57391;51.306;22.680;2022-12-10T00:59:01;1.98;85.19
70051;SHT30;57391;51.306;22.680;2022-12-10T01:01:30;1.99;85.10
70051;SHT30;57391;51.306;22.680;2022-12-10T01:04:05;1.99;85.08
70051;SHT30;57391;51.306;22.680;2022-12-10T01:06:47;1.99;84.98
70051;SHT30;57391;51.306;22.680;2022-12-10T01:09:22;1.99;85.03
70051;SHT30;57391;51.306;22.680;2022-12-10T01:11:54;1.99;85.04
70051;SHT30;57391;51.306;22.680;2022-12-10T01:14:25;1.99;84.92
70051;SHT30;57391;51.306;22.680;2022-12-10T01:17:01;1.98;84.96
70051;SHT30;57391;51.306;22.680;2022-12-10T01:19:31;1.96;84.90
70051;SHT30;57391;51.306;22.680;2022-12-10T01:22:01;1.94;84.92
70051;SHT30;57391;51.306;22.680;2022-12-10T01:24:30;1.93;84.99
70051;SHT30;57391;51.306;22.680;2022-12-10T01:26:58;1.92;85.16
70051;SHT30;57391;51.306;22.680;2022-12-10T01:29:26;1.93;85.11
70051;SHT30;57391;51.306;22.680;2022-12-10T01:31:55;1.93;85.10
70051;SHT30;57391;51.306;22.680;2022-12-10T01:34:23;1.92;85.07
70051;SHT30;57391;51.306;22.680;2022-12-10T01:36:54;1.91;85.09
70051;SHT30;57391;51.306;22.680;2022-12-10T01:39:22;1.90;85.12
70051;SHT30;57391;51.306;22.680;2022-12-10T01:41:52;1.89;85.12
70051;SHT30;57391;51.306;22.680;2022-12-10T01:46:50;1.86;85.20
70051;SHT30;57391;51.306;22.680;2022-12-10T01:49:21;1.84;85.20
70051;SHT30;57391;51.306;22.680;2022-12-10T01:51:53;1.84;85.29
70051;SHT30;57391;51.306;22.680;2022-12-10T01:57:00;1.83;85.28
70051;SHT30;57391;51.306;22.680;2022-12-10T01:59:31;1.85;85.34
70051;SHT30;57391;51.306;22.680;2022-12-10T02:14:32;1.82;85.25
70051;SHT30;57391;51.306;22.680;2022-12-10T02:17:09;1.83;85.30
70051;SHT30;57391;51.306;22.680;2022-12-10T02:20:30;1.83;85.17
70051;SHT30;57391;51.306;22.680;2022-12-10T02:23:13;1.82;85.20
70051;SHT30;57391;51.306;22.680;2022-12-10T02:29:27;1.82;85.27
70051;SHT30;57391;51.306;22.680;2022-12-10T02:32:00;1.85;85.33
70051;SHT30;57391;51.306;22.680;2022-12-10T02:34:35;1.85;85.21
70051;SHT30;57391;51.306;22.680;2022-12-10T02:37:26;1.87;85.14
70051;SHT30;57391;51.306;22.680;2022-12-10T02:39:59;1.86;85.16
70051;SHT30;57391;51.306;22.680;2022-12-10T02:42:35;1.86;85.12
70051;SHT30;57391;51.306;22.680;2022-12-10T02:45:08;1.86;85.14
70051;SHT30;57391;51.306;22.680;2022-12-10T02:47:37;1.86;85.10
70051;SHT30;57391;51.306;22.680;2022-12-10T02:50:07;1.87;85.20
70051;SHT30;57391;51.306;22.680;2022-12-10T02:52:40;1.88;85.11
70051;SHT30;57391;51.306;22.680;2022-12-10T02:55:10;1.89;85.00
70051;SHT30;57391;51.306;22.680;2022-12-10T03:00:41;1.84;85.03
70051;SHT30;57391;51.306;22.680;2022-12-10T03:03:26;1.84;85.16
70051;SHT30;57391;51.306;22.680;2022-12-10T03:06:06;1.83;85.06
70051;SHT30;57391;51.306;22.680;2022-12-10T03:11:27;1.82;85.02
70051;SHT30;57391;51.306;22.680;2022-12-10T03:16:42;1.79;85.06
70051;SHT30;57391;51.306;22.680;2022-12-10T03:19:15;1.80;85.03
70051;SHT30;57391;51.306;22.680;2022-12-10T03:21:48;1.79;84.99
70051;SHT30;57391;51.306;22.680;2022-12-10T03:24:18;1.79;85.01
70051;SHT30;57391;51.306;22.680;2022-12-10T03:26:47;1.81;85.00
70051;SHT30;57391;51.306;22.680;2022-12-10T03:29:28;1.81;84.93
70051;SHT30;57391;51.306;22.680;2022-12-10T03:32:06;1.81;84.90
70051;SHT30;57391;51.306;22.680;2022-12-10T03:34:34;1.80;85.24
70051;SHT30;57391;51.306;22.680;2022-12-10T03:37:04;1.78;85.57
70051;SHT30;57391;51.306;22.680;2022-12-10T03:39:33;1.79;85.43
70051;SHT30;57391;51.306;22.680;2022-12-10T03:42:00;1.78;85.31
70051;SHT30;57391;51.306;22.680;2022-12-10T03:44:35;1.76;85.14
70051;SHT30;57391;51.306;22.680;2022-12-10T03:47:05;1.73;85.20
70051;SHT30;57391;51.306;22.680;2022-12-10T03:49:37;1.73;85.12
70051;SHT30;57391;51.306;22.680;2022-12-10T03:52:05;1.73;85.05
70051;SHT30;57391;51.306;22.680;2022-12-10T03:54:32;1.71;85.01
70051;SHT30;57391;51.306;22.680;2022-12-10T03:56:59;1.70;85.09
70051;SHT30;57391;51.306;22.680;2022-12-10T03:59:26;1.71;85.17
70051;SHT30;57391;51.306;22.680;2022-12-10T04:01:53;1.74;85.10
70051;SHT30;57391;51.306;22.680;2022-12-10T04:04:21;1.75;84.99
70051;SHT30;57391;51.306;22.680;2022-12-10T04:06:49;1.75;84.95
70051;SHT30;57391;51.306;22.680;2022-12-10T04:09:16;1.75;84.90
70051;SHT30;57391;51.306;22.680;2022-12-10T04:11:43;1.73;84.82
70051;SHT30;57391;51.306;22.680;2022-12-10T04:14:11;1.71;84.86
70051;SHT30;57391;51.306;22.680;2022-12-10T04:16:58;1.71;84.96
70051;SHT30;57391;51.306;22.680;2022-12-10T04:19:26;1.69;84.88
70051;SHT30;57391;51.306;22.680;2022-12-10T04:21:53;1.68;84.91
70051;SHT30;57391;51.306;22.680;2022-12-10T04:24:39;1.67;84.96
70051;SHT30;57391;51.306;22.680;2022-12-10T04:27:38;1.65;84.92
70051;SHT30;57391;51.306;22.680;2022-12-10T04:30:07;1.65;84.95
70051;SHT30;57391;51.306;22.680;2022-12-10T04:32:37;1.64;84.97
70051;SHT30;57391;51.306;22.680;2022-12-10T04:35:05;1.64;84.92
70051;SHT30;57391;51.306;22.680;2022-12-10T04:37:33;1.66;85.01
70051;SHT30;57391;51.306;22.680;2022-12-10T04:40:00;1.64;84.87
70051;SHT30;57391;51.306;22.680;2022-12-10T04:42:29;1.65;84.89
70051;SHT30;57391;51.306;22.680;2022-12-10T04:44:56;1.64;84.88
70051;SHT30;57391;51.306;22.680;2022-12-10T04:47:23;1.66;84.90
70051;SHT30;57391;51.306;22.680;2022-12-10T04:49:51;1.65;84.82
70051;SHT30;57391;51.306;22.680;2022-12-10T04:52:18;1.65;84.78
70051;SHT30;57391;51.306;22.680;2022-12-10T04:54:45;1.63;84.80
70051;SHT30;57391;51.306;22.680;2022-12-10T04:57:13;1.65;84.84
70051;SHT30;57391;51.306;22.680;2022-12-10T04:59:41;1.65;84.86
70051;SHT30;57391;51.306;22.680;2022-12-10T05:02:08;1.68;84.80
70051;SHT30;57391;51.306;22.680;2022-12-10T05:04:35;1.68;84.74
70051;SHT30;57391;51.306;22.680;2022-12-10T05:07:02;1.71;84.75
70051;SHT30;57391;51.306;22.680;2022-12-10T05:09:30;1.72;84.74
70051;SHT30;57391;51.306;22.680;2022-12-10T05:11:57;1.73;84.61
70051;SHT30;57391;51.306;22.680;2022-12-10T05:14:24;1.73;84.55
70051;SHT30;57391;51.306;22.680;2022-12-10T05:16:52;1.73;84.49
70051;SHT30;57391;51.306;22.680;2022-12-10T05:19:19;1.74;84.60
70051;SHT30;57391;51.306;22.680;2022-12-10T05:21:48;1.77;84.57
70051;SHT30;57391;51.306;22.680;2022-12-10T05:24:34;1.78;84.43
70051;SHT30;57391;51.306;22.680;2022-12-10T05:27:02;1.77;84.37
70051;SHT30;57391;51.306;22.680;2022-12-10T05:29:31;1.77;84.30
70051;SHT30;57391;51.306;22.680;2022-12-10T05:32:00;1.77;84.35
70051;SHT30;57391;51.306;22.680;2022-12-10T05:34:29;1.76;84.32
70051;SHT30;57391;51.306;22.680;2022-12-10T05:36:56;1.76;84.40
70051;SHT30;57391;51.306;22.680;2022-12-10T05:39:23;1.76;84.33
70051;SHT30;57391;51.306;22.680;2022-12-10T05:41:50;1.76;84.34
70051;SHT30;57391;51.306;22.680;2022-12-10T05:44:17;1.76;84.36
70051;SHT30;57391;51.306;22.680;2022-12-10T05:46:44;1.77;84.32
70051;SHT30;57391;51.306;22.680;2022-12-10T05:49:11;1.76;84.26
70051;SHT30;57391;51.306;22.680;2022-12-10T05:51:38;1.74;84.26
70051;SHT30;57391;51.306;22.680;2022-12-10T05:54:06;1.74;84.34
70051;SHT30;57391;51.306;22.680;2022-12-10T05:56:36;1.73;84.30
70051;SHT30;57391;51.306;22.680;2022-12-10T05:59:04;1.72;84.36
70051;SHT30;57391;51.306;22.680;2022-12-10T06:01:33;1.73;84.40
70051;SHT30;57391;51.306;22.680;2022-12-10T06:04:02;1.74;84.39
70051;SHT30;57391;51.306;22.680;2022-12-10T06:06:33;1.75;84.34
70051;SHT30;57391;51.306;22.680;2022-12-10T06:09:03;1.76;84.32
70051;SHT30;57391;51.306;22.680;2022-12-10T06:11:33;1.75;84.29
70051;SHT30;57391;51.306;22.680;2022-12-10T06:14:01;1.75;84.29
70051;SHT30;57391;51.306;22.680;2022-12-10T06:16:28;1.75;84.25
70051;SHT30;57391;51.306;22.680;2022-12-10T06:18:56;1.75;84.37
70051;SHT30;57391;51.306;22.680;2022-12-10T06:21:24;1.75;84.34
70051;SHT30;57391;51.306;22.680;2022-12-10T06:23:52;1.77;84.44
70051;SHT30;57391;51.306;22.680;2022-12-10T06:26:23;1.79;84.39
70051;SHT30;57391;51.306;22.680;2022-12-10T06:28:53;1.81;84.38
70051;SHT30;57391;51.306;22.680;2022-12-10T06:31:20;1.80;84.23
70051;SHT30;57391;51.306;22.680;2022-12-10T06:33:49;1.80;84.31
70051;SHT30;57391;51.306;22.680;2022-12-10T06:36:18;1.80;84.30
70051;SHT30;57391;51.306;22.680;2022-12-10T06:38:46;1.81;84.36
70051;SHT30;57391;51.306;22.680;2022-12-10T06:41:15;1.82;84.23
70051;SHT30;57391;51.306;22.680;2022-12-10T06:43:47;1.80;84.18
70051;SHT30;57391;51.306;22.680;2022-12-10T06:46:16;1.81;84.28
70051;SHT30;57391;51.306;22.680;2022-12-10T06:48:46;1.80;84.14
70051;SHT30;57391;51.306;22.680;2022-12-10T06:51:14;1.81;84.20
70051;SHT30;57391;51.306;22.680;2022-12-10T06:53:41;1.82;84.20
70051;SHT30;57391;51.306;22.680;2022-12-10T06:56:12;1.84;84.22
70051;SHT30;57391;51.306;22.680;2022-12-10T06:58:44;1.84;84.10
70051;SHT30;57391;51.306;22.680;2022-12-10T07:01:17;1.85;84.09
70051;SHT30;57391;51.306;22.680;2022-12-10T07:03:49;1.84;84.02
70051;SHT30;57391;51.306;22.680;2022-12-10T07:06:18;1.84;83.96
70051;SHT30;57391;51.306;22.680;2022-12-10T07:08:46;1.82;83.96
70051;SHT30;57391;51.306;22.680;2022-12-10T07:11:15;1.83;84.03
70051;SHT30;57391;51.306;22.680;2022-12-10T07:13:45;1.84;84.10
70051;SHT30;57391;51.306;22.680;2022-12-10T07:16:31;1.85;84.06
70051;SHT30;57391;51.306;22.680;2022-12-10T07:19:00;1.86;84.08
70051;SHT30;57391;51.306;22.680;2022-12-10T07:21:30;1.88;84.07
70051;SHT30;57391;51.306;22.680;2022-12-10T07:24:02;1.91;84.07
70051;SHT30;57391;51.306;22.680;2022-12-10T07:26:33;1.95;83.99
70051;SHT30;57391;51.306;22.680;2022-12-10T07:29:04;1.98;83.94
70051;SHT30;57391;51.306;22.680;2022-12-10T07:31:33;1.99;83.88
70051;SHT30;57391;51.306;22.680;2022-12-10T07:34:02;2.01;83.86
70051;SHT30;57391;51.306;22.680;2022-12-10T07:36:29;2.00;83.78
70051;SHT30;57391;51.306;22.680;2022-12-10T07:38:57;2.01;83.75
70051;SHT30;57391;51.306;22.680;2022-12-10T07:41:24;2.02;83.72
70051;SHT30;57391;51.306;22.680;2022-12-10T07:43:52;2.01;83.59
70051;SHT30;57391;51.306;22.680;2022-12-10T07:46:22;2.01;83.69
70051;SHT30;57391;51.306;22.680;2022-12-10T07:48:55;2.02;83.69
70051;SHT30;57391;51.306;22.680;2022-12-10T07:51:22;2.04;83.69
70051;SHT30;57391;51.306;22.680;2022-12-10T07:53:53;2.06;83.69
70051;SHT30;57391;51.306;22.680;2022-12-10T07:56:21;2.06;83.60
70051;SHT30;57391;51.306;22.680;2022-12-10T07:58:51;2.06;83.54
70051;SHT30;57391;51.306;22.680;2022-12-10T08:01:24;2.05;83.53
70051;SHT30;57391;51.306;22.680;2022-12-10T08:03:53;2.04;83.53
70051;SHT30;57391;51.306;22.680;2022-12-10T08:06:25;2.03;83.50
70051;SHT30;57391;51.306;22.680;2022-12-10T08:08:55;2.02;83.48
70051;SHT30;57391;51.306;22.680;2022-12-10T08:11:24;2.00;83.45
70051;SHT30;57391;51.306;22.680;2022-12-10T08:13:53;2.00;83.49
70051;SHT30;57391;51.306;22.680;2022-12-10T08:16:21;1.98;83.51
70051;SHT30;57391;51.306;22.680;2022-12-10T08:18:54;1.99;83.55
70051;SHT30;57391;51.306;22.680;2022-12-10T08:21:24;2.00;83.58
70051;SHT30;57391;51.306;22.680;2022-12-10T08:23:55;2.01;83.56
70051;SHT30;57391;51.306;22.680;2022-12-10T08:26:23;2.03;83.55
70051;SHT30;57391;51.306;22.680;2022-12-10T08:28:54;2.07;83.49
70051;SHT30;57391;51.306;22.680;2022-12-10T08:31:24;2.08;83.36
70051;SHT30;57391;51.306;22.680;2022-12-10T08:33:52;2.08;83.18
70051;SHT30;57391;51.306;22.680;2022-12-10T08:36:20;2.06;83.11
70051;SHT30;57391;51.306;22.680;2022-12-10T08:38:48;2.05;83.11
70051;SHT30;57391;51.306;22.680;2022-12-10T08:41:18;2.04;83.15
70051;SHT30;57391;51.306;22.680;2022-12-10T08:43:48;2.03;83.06
70051;SHT30;57391;51.306;22.680;2022-12-10T08:46:20;2.01;83.08
70051;SHT30;57391;51.306;22.680;2022-12-10T08:48:49;2.01;83.32
70051;SHT30;57391;51.306;22.680;2022-12-10T08:51:17;2.04;83.47
70051;SHT30;57391;51.306;22.680;2022-12-10T08:53:46;2.08;83.50
70051;SHT30;57391;51.306;22.680;2022-12-10T08:56:15;2.12;83.47
70051;SHT30;57391;51.306;22.680;2022-12-10T08:58:42;2.12;83.31
70051;SHT30;57391;51.306;22.680;2022-12-10T09:01:14;2.16;83.31
70051;SHT30;57391;51.306;22.680;2022-12-10T09:03:44;2.20;83.22
70051;SHT30;57391;51.306;22.680;2022-12-10T09:06:16;2.21;83.04
70051;SHT30;57391;51.306;22.680;2022-12-10T09:08:46;2.23;83.04
70051;SHT30;57391;51.306;22.680;2022-12-10T09:11:25;2.23;82.95
70051;SHT30;57391;51.306;22.680;2022-12-10T09:13:56;2.24;82.85
70051;SHT30;57391;51.306;22.680;2022-12-10T09:16:31;2.22;82.83
70051;SHT30;57391;51.306;22.680;2022-12-10T09:19:02;2.22;82.92
70051;SHT30;57391;51.306;22.680;2022-12-10T09:21:31;2.23;82.75
70051;SHT30;57391;51.306;22.680;2022-12-10T09:23:59;2.22;82.79
70051;SHT30;57391;51.306;22.680;2022-12-10T09:26:26;2.25;82.74
70051;SHT30;57391;51.306;22.680;2022-12-10T09:28:54;2.26;82.70
70051;SHT30;57391;51.306;22.680;2022-12-10T09:31:21;2.27;82.71
70051;SHT30;57391;51.306;22.680;2022-12-10T09:33:49;2.29;82.64
70051;SHT30;57391;51.306;22.680;2022-12-10T09:36:19;2.28;82.56
70051;SHT30;57391;51.306;22.680;2022-12-10T09:38:48;2.29;82.61
70051;SHT30;57391;51.306;22.680;2022-12-10T09:45:15;2.30;82.51
70051;SHT30;57391;51.306;22.680;2022-12-10T09:48:11;2.28;82.42
70051;SHT30;57391;51.306;22.680;2022-12-10T09:50:59;2.28;82.48
70051;SHT30;57391;51.306;22.680;2022-12-10T09:53:40;2.28;82.58
70051;SHT30;57391;51.306;22.680;2022-12-10T09:56:20;2.30;82.52
70051;SHT30;57391;51.306;22.680;2022-12-10T09:59:03;2.31;82.49
70051;SHT30;57391;51.306;22.680;2022-12-10T10:01:58;2.31;82.36
70051;SHT30;57391;51.306;22.680;2022-12-10T10:04:44;2.29;82.41
70051;SHT30;57391;51.306;22.680;2022-12-10T10:07:23;2.32;82.50
70051;SHT30;57391;51.306;22.680;2022-12-10T10:09:58;2.35;82.49
70051;SHT30;57391;51.306;22.680;2022-12-10T10:12:33;2.39;82.43
70051;SHT30;57391;51.306;22.680;2022-12-10T10:15:09;2.39;82.27
70051;SHT30;57391;51.306;22.680;2022-12-10T10:17:45;2.39;82.18
70051;SHT30;57391;51.306;22.680;2022-12-10T10:20:16;2.41;82.28
70051;SHT30;57391;51.306;22.680;2022-12-10T10:22:44;2.43;82.20
70051;SHT30;57391;51.306;22.680;2022-12-10T10:25:13;2.45;82.19
70051;SHT30;57391;51.306;22.680;2022-12-10T10:27:44;2.46;82.12
70051;SHT30;57391;51.306;22.680;2022-12-10T10:30:15;2.47;82.07
70051;SHT30;57391;51.306;22.680;2022-12-10T10:32:51;2.50;82.04
70051;SHT30;57391;51.306;22.680;2022-12-10T10:37:58;2.49;81.91
70051;SHT30;57391;51.306;22.680;2022-12-10T10:40:42;2.46;81.78
70051;SHT30;57391;51.306;22.680;2022-12-10T10:43:14;2.43;81.85
70051;SHT30;57391;51.306;22.680;2022-12-10T10:46:00;2.42;81.99
70051;SHT30;57391;51.306;22.680;2022-12-10T10:48:43;2.41;81.96
70051;SHT30;57391;51.306;22.680;2022-12-10T10:56:09;2.47;82.11
70051;SHT30;57391;51.306;22.680;2022-12-10T11:01:19;2.47;81.97
70051;SHT30;57391;51.306;22.680;2022-12-10T11:03:49;2.46;81.90
70051;SHT30;57391;51.306;22.680;2022-12-10T11:06:22;2.45;81.77
70051;SHT30;57391;51.306;22.680;2022-12-10T11:08:50;2.41;81.76
70051;SHT30;57391;51.306;22.680;2022-12-10T11:11:31;2.38;81.75
70051;SHT30;57391;51.306;22.680;2022-12-10T11:14:15;2.35;82.00
70051;SHT30;57391;51.306;22.680;2022-12-10T11:19:52;2.32;81.85
70051;SHT30;57391;51.306;22.680;2022-12-10T11:22:49;2.28;81.92
70051;SHT30;57391;51.306;22.680;2022-12-10T11:34:17;2.33;81.96
70051;SHT30;57391;51.306;22.680;2022-12-10T11:37:18;2.32;81.81
70051;SHT30;57391;51.306;22.680;2022-12-10T11:40:14;2.34;81.98
70051;SHT30;57391;51.306;22.680;2022-12-10T11:49:37;2.32;81.85
70051;SHT30;57391;51.306;22.680;2022-12-10T12:00:15;2.33;81.60
70051;SHT30;57391;51.306;22.680;2022-12-10T12:05:51;2.31;81.74
70051;SHT30;57391;51.306;22.680;2022-12-10T12:08:51;2.31;81.85
70051;SHT30;57391;51.306;22.680;2022-12-10T12:12:03;2.29;81.62
70051;SHT30;57391;51.306;22.680;2022-12-10T12:15:21;2.30;81.60
70051;SHT30;57391;51.306;22.680;2022-12-10T12:17:57;2.32;81.70
70051;SHT30;57391;51.306;22.680;2022-12-10T12:20:39;2.31;81.44
70051;SHT30;57391;51.306;22.680;2022-12-10T12:23:19;2.29;81.16
70051;SHT30;57391;51.306;22.680;2022-12-10T12:32:25;2.16;81.35
70051;SHT30;57391;51.306;22.680;2022-12-10T12:35:17;2.15;81.33
70051;SHT30;57391;51.306;22.680;2022-12-10T12:37:58;2.12;81.47
70051;SHT30;57391;51.306;22.680;2022-12-10T12:40:39;2.11;81.58
70051;SHT30;57391;51.306;22.680;2022-12-10T12:43:16;2.12;81.68
70051;SHT30;57391;51.306;22.680;2022-12-10T12:45:52;2.10;81.73
70051;SHT30;57391;51.306;22.680;2022-12-10T12:48:26;2.09;81.82
70051;SHT30;57391;51.306;22.680;2022-12-10T12:51:17;2.09;81.93
70051;SHT30;57391;51.306;22.680;2022-12-10T12:53:54;2.08;81.99
70051;SHT30;57391;51.306;22.680;2022-12-10T12:57:06;2.09;81.98
70051;SHT30;57391;51.306;22.680;2022-12-10T13:01:57;2.06;81.39
70051;SHT30;57391;51.306;22.680;2022-12-10T13:04:43;2.03;81.31
70051;SHT30;57391;51.306;22.680;2022-12-10T13:15:44;2.00;81.73
70051;SHT30;57391;51.306;22.680;2022-12-10T13:39:21;1.92;81.70
70051;SHT30;57391;51.306;22.680;2022-12-10T13:44:59;1.87;81.53
70051;SHT30;57391;51.306;22.680;2022-12-10T13:50:04;1.83;81.53
70051;SHT30;57391;51.306;22.680;2022-12-10T13:55:55;1.76;81.56
70051;SHT30;57391;51.306;22.680;2022-12-10T14:01:25;1.70;81.80
70051;SHT30;57391;51.306;22.680;2022-12-10T14:04:33;1.69;81.96
70051;SHT30;57391;51.306;22.680;2022-12-10T14:07:21;1.69;82.08
70051;SHT30;57391;51.306;22.680;2022-12-10T14:09:51;1.66;82.04
70051;SHT30;57391;51.306;22.680;2022-12-10T14:12:41;1.66;82.09
70051;SHT30;57391;51.306;22.680;2022-12-10T14:15:20;1.65;82.21
70051;SHT30;57391;51.306;22.680;2022-12-10T14:18:00;1.65;82.31
70051;SHT30;57391;51.306;22.680;2022-12-10T14:20:33;1.67;82.38
70051;SHT30;57391;51.306;22.680;2022-12-10T14:23:03;1.67;82.31
70051;SHT30;57391;51.306;22.680;2022-12-10T14:26:17;1.67;82.46
70051;SHT30;57391;51.306;22.680;2022-12-10T14:29:01;1.69;82.51
70051;SHT30;57391;51.306;22.680;2022-12-10T14:34:02;1.71;82.38
70051;SHT30;57391;51.306;22.680;2022-12-10T14:36:44;1.72;82.24
70051;SHT30;57391;51.306;22.680;2022-12-10T14:39:25;1.70;82.15
70051;SHT30;57391;51.306;22.680;2022-12-10T14:41:57;1.69;82.22
70051;SHT30;57391;51.306;22.680;2022-12-10T14:44:29;1.70;82.25
70051;SHT30;57391;51.306;22.680;2022-12-10T14:47:05;1.72;82.33
70051;SHT30;57391;51.306;22.680;2022-12-10T14:49:47;1.74;82.35
70051;SHT30;57391;51.306;22.680;2022-12-10T14:52:19;1.73;82.23
70051;SHT30;57391;51.306;22.680;2022-12-10T14:54:50;1.73;82.24
70051;SHT30;57391;51.306;22.680;2022-12-10T14:57:27;1.73;82.26
70051;SHT30;57391;51.306;22.680;2022-12-10T15:02:56;1.71;82.23
70051;SHT30;57391;51.306;22.680;2022-12-10T15:05:29;1.70;82.22
70051;SHT30;57391;51.306;22.680;2022-12-10T15:08:06;1.69;82.16
70051;SHT30;57391;51.306;22.680;2022-12-10T15:10:46;1.67;82.10
70051;SHT30;57391;51.306;22.680;2022-12-10T15:13:25;1.64;81.99
70051;SHT30;57391;51.306;22.680;2022-12-10T15:16:04;1.63;82.19
70051;SHT30;57391;51.306;22.680;2022-12-10T15:18:34;1.64;82.15
70051;SHT30;57391;51.306;22.680;2022-12-10T15:23:33;1.64;82.04
70051;SHT30;57391;51.306;22.680;2022-12-10T15:28:44;1.70;82.17
70051;SHT30;57391;51.306;22.680;2022-12-10T15:33:54;1.73;81.56
70051;SHT30;57391;51.306;22.680;2022-12-10T15:36:31;1.70;81.39
70051;SHT30;57391;51.306;22.680;2022-12-10T15:41:50;1.74;81.78
70051;SHT30;57391;51.306;22.680;2022-12-10T15:49:55;1.73;81.60
70051;SHT30;57391;51.306;22.680;2022-12-10T15:52:26;1.72;81.63
70051;SHT30;57391;51.306;22.680;2022-12-10T15:54:58;1.72;81.73
70051;SHT30;57391;51.306;22.680;2022-12-10T15:57:30;1.74;81.70
70051;SHT30;57391;51.306;22.680;2022-12-10T16:00:05;1.75;81.68
70051;SHT30;57391;51.306;22.680;2022-12-10T16:02:44;1.76;81.76
70051;SHT30;57391;51.306;22.680;2022-12-10T16:05:30;1.78;81.76
70051;SHT30;57391;51.306;22.680;2022-12-10T16:08:12;1.82;81.80
70051;SHT30;57391;51.306;22.680;2022-12-10T16:10:50;1.85;81.70
70051;SHT30;57391;51.306;22.680;2022-12-10T16:13:22;1.85;81.53
70051;SHT30;57391;51.306;22.680;2022-12-10T16:15:55;1.87;81.46
70051;SHT30;57391;51.306;22.680;2022-12-10T16:18:30;1.87;81.35
70051;SHT30;57391;51.306;22.680;2022-12-10T16:20:58;1.85;81.29
70051;SHT30;57391;51.306;22.680;2022-12-10T16:23:26;1.85;81.24
70051;SHT30;57391;51.306;22.680;2022-12-10T16:25:53;1.85;81.23
70051;SHT30;57391;51.306;22.680;2022-12-10T16:28:24;1.84;81.26
70051;SHT30;57391;51.306;22.680;2022-12-10T16:30:57;1.83;81.30
70051;SHT30;57391;51.306;22.680;2022-12-10T16:33:26;1.82;81.30
70051;SHT30;57391;51.306;22.680;2022-12-10T16:35:55;1.81;81.42
70051;SHT30;57391;51.306;22.680;2022-12-10T16:38:28;1.82;81.61
70051;SHT30;57391;51.306;22.680;2022-12-10T16:40:56;1.84;81.60
70051;SHT30;57391;51.306;22.680;2022-12-10T16:43:26;1.84;81.53
70051;SHT30;57391;51.306;22.680;2022-12-10T16:45:56;1.82;81.67
70051;SHT30;57391;51.306;22.680;2022-12-10T16:48:24;1.82;81.66
70051;SHT30;57391;51.306;22.680;2022-12-10T16:50:52;1.81;81.77
70051;SHT30;57391;51.306;22.680;2022-12-10T16:53:26;1.79;81.87
70051;SHT30;57391;51.306;22.680;2022-12-10T16:55:56;1.79;81.82
70051;SHT30;57391;51.306;22.680;2022-12-10T16:58:24;1.77;81.83
70051;SHT30;57391;51.306;22.680;2022-12-10T17:00:51;1.75;81.88
70051;SHT30;57391;51.306;22.680;2022-12-10T17:03:21;1.73;81.86
70051;SHT30;57391;51.306;22.680;2022-12-10T17:05:56;1.72;81.78
70051;SHT30;57391;51.306;22.680;2022-12-10T17:08:26;1.66;81.83
70051;SHT30;57391;51.306;22.680;2022-12-10T17:10:55;1.64;82.01
70051;SHT30;57391;51.306;22.680;2022-12-10T17:13:43;1.62;82.00
70051;SHT30;57391;51.306;22.680;2022-12-10T17:16:15;1.61;82.04
70051;SHT30;57391;51.306;22.680;2022-12-10T17:18:47;1.59;81.98
70051;SHT30;57391;51.306;22.680;2022-12-10T17:21:15;1.57;82.14
70051;SHT30;57391;51.306;22.680;2022-12-10T17:23:42;1.57;82.18
70051;SHT30;57391;51.306;22.680;2022-12-10T17:26:12;1.55;82.14
70051;SHT30;57391;51.306;22.680;2022-12-10T17:29:04;1.54;82.15
70051;SHT30;57391;51.306;22.680;2022-12-10T17:31:57;1.52;82.25
70051;SHT30;57391;51.306;22.680;2022-12-10T17:34:24;1.53;82.38
70051;SHT30;57391;51.306;22.680;2022-12-10T17:36:52;1.55;82.36
70051;SHT30;57391;51.306;22.680;2022-12-10T17:39:20;1.56;82.42
70051;SHT30;57391;51.306;22.680;2022-12-10T17:41:51;1.55;82.31
70051;SHT30;57391;51.306;22.680;2022-12-10T17:44:21;1.53;82.36
70051;SHT30;57391;51.306;22.680;2022-12-10T17:46:49;1.50;82.40
70051;SHT30;57391;51.306;22.680;2022-12-10T17:49:16;1.49;82.50
70051;SHT30;57391;51.306;22.680;2022-12-10T17:51:44;1.47;82.54
70051;SHT30;57391;51.306;22.680;2022-12-10T17:54:12;1.47;82.70
70051;SHT30;57391;51.306;22.680;2022-12-10T17:56:40;1.49;82.75
70051;SHT30;57391;51.306;22.680;2022-12-10T17:59:11;1.51;82.73
70051;SHT30;57391;51.306;22.680;2022-12-10T18:01:41;1.51;82.72
70051;SHT30;57391;51.306;22.680;2022-12-10T18:04:09;1.52;82.74
70051;SHT30;57391;51.306;22.680;2022-12-10T18:06:36;1.49;82.64
70051;SHT30;57391;51.306;22.680;2022-12-10T18:09:05;1.47;82.74
70051;SHT30;57391;51.306;22.680;2022-12-10T18:11:38;1.45;82.86
70051;SHT30;57391;51.306;22.680;2022-12-10T18:14:07;1.42;82.84
70051;SHT30;57391;51.306;22.680;2022-12-10T18:16:34;1.38;82.87
70051;SHT30;57391;51.306;22.680;2022-12-10T18:19:06;1.39;83.08
70051;SHT30;57391;51.306;22.680;2022-12-10T18:21:41;1.35;82.98
70051;SHT30;57391;51.306;22.680;2022-12-10T18:24:08;1.31;83.14
70051;SHT30;57391;51.306;22.680;2022-12-10T18:26:36;1.28;83.29
70051;SHT30;57391;51.306;22.680;2022-12-10T18:29:04;1.29;83.41
70051;SHT30;57391;51.306;22.680;2022-12-10T18:31:33;1.31;83.44